Archiv-/Tagesdaten

--Timestamp---	Temp	Chill	HIndex	Humid	Dewpt	 Wind 	HiWind	WindDir	Rain 	Barom	Solar	 ET  	 UV 
--------------	----	-----	------	-----	-----	------	------	-------	-----	-----	-----	-----	----
20260325 00:00	5.3	5.3	5.3	72	0.6	5	11	158	0.0	1013.8	0	0.025	0.0
20260325 00:05	5.3	5.3	5.3	71	0.5	5	11	158	0.0	1013.6	0	0.000	0.0
20260325 00:10	5.3	5.3	5.3	71	0.5	5	10	158	0.0	1013.7	0	0.000	0.0
20260325 00:15	5.3	5.3	5.3	71	0.5	2	8	158	0.0	1013.7	0	0.000	0.0
20260325 00:20	5.3	5.3	5.3	71	0.5	3	8	180	0.0	1013.7	0	0.000	0.0
20260325 00:25	5.3	5.3	5.3	72	0.6	5	8	158	0.0	1013.7	0	0.000	0.0
20260325 00:30	5.2	5.2	5.2	72	0.5	3	8	180	0.0	1013.7	0	0.000	0.0
20260325 00:35	5.1	5.1	5.1	72	0.4	3	8	180	0.0	1013.6	0	0.000	0.0
20260325 00:40	5.0	5.0	5.0	72	0.4	3	8	180	0.0	1013.5	0	0.000	0.0
20260325 00:45	4.9	4.9	4.9	73	0.5	3	8	180	0.0	1013.5	0	0.000	0.0
20260325 00:50	4.9	4.9	4.9	73	0.5	3	6	180	0.0	1013.4	0	0.000	0.0
20260325 00:55	4.8	4.8	4.8	73	0.4	3	8	180	0.0	1013.3	0	0.000	0.0
20260325 01:00	4.8	4.8	4.8	73	0.4	3	6	180	0.0	1013.3	0	0.025	0.0
20260325 01:05	4.8	4.8	4.8	73	0.4	3	5	158	0.0	1013.2	0	0.000	0.0
20260325 01:10	4.8	4.8	4.8	73	0.4	3	8	180	0.0	1013.1	0	0.000	0.0
20260325 01:15	4.8	4.8	4.8	73	0.4	3	8	180	0.0	1013.1	0	0.000	0.0
20260325 01:20	4.8	4.8	4.8	73	0.4	5	11	180	0.0	1013.0	0	0.000	0.0
20260325 01:25	4.7	4.7	4.7	73	0.3	5	10	158	0.0	1012.8	0	0.000	0.0
20260325 01:30	4.7	3.3	4.7	73	0.3	6	11	158	0.0	1012.7	0	0.000	0.0
20260325 01:35	4.8	3.3	4.8	73	0.4	6	11	158	0.0	1012.5	0	0.000	0.0
20260325 01:40	4.8	3.3	4.8	73	0.4	6	10	158	0.0	1012.4	0	0.000	0.0
20260325 01:45	4.8	3.4	4.8	73	0.4	6	11	158	0.0	1012.4	0	0.000	0.0
20260325 01:50	4.8	3.4	4.8	73	0.4	6	11	158	0.0	1012.2	0	0.000	0.0
20260325 01:55	4.8	4.8	4.8	73	0.4	5	11	158	0.0	1012.1	0	0.000	0.0
20260325 02:00	4.9	3.5	4.9	72	0.3	6	11	180	0.0	1012.1	0	0.025	0.0
20260325 02:05	4.9	3.1	4.9	72	0.3	8	14	180	0.0	1012.0	0	0.000	0.0
20260325 02:10	5.0	3.6	5.0	72	0.4	6	14	158	0.0	1012.0	0	0.000	0.0
20260325 02:15	5.0	3.6	5.0	72	0.4	6	14	158	0.0	1011.9	0	0.000	0.0
20260325 02:20	5.0	3.6	5.0	72	0.4	6	10	158	0.0	1011.7	0	0.000	0.0
20260325 02:25	5.0	5.0	5.0	72	0.4	5	11	180	0.0	1011.7	0	0.000	0.0
20260325 02:30	5.0	5.0	5.0	72	0.4	5	11	180	0.0	1011.6	0	0.000	0.0
20260325 02:35	5.0	5.0	5.0	72	0.4	5	10	158	0.0	1011.4	0	0.000	0.0
20260325 02:40	5.1	5.1	5.1	72	0.4	5	10	158	0.0	1011.2	0	0.000	0.0
20260325 02:45	5.2	3.8	5.2	71	0.3	6	14	158	0.0	1011.1	0	0.000	0.0
20260325 02:50	5.2	3.9	5.2	71	0.4	6	14	158	0.0	1010.9	0	0.000	0.0
20260325 02:55	5.3	3.5	5.3	70	0.3	8	18	180	0.0	1010.8	0	0.000	0.0
20260325 03:00	5.4	3.6	5.4	70	0.4	8	18	158	0.0	1010.7	0	0.025	0.0
20260325 03:05	5.4	3.6	5.4	70	0.4	8	18	180	0.0	1010.4	0	0.000	0.0
20260325 03:10	5.4	3.6	5.4	70	0.4	8	14	180	0.0	1010.3	0	0.000	0.0
20260325 03:15	5.3	3.5	5.3	70	0.3	8	18	180	0.0	1010.0	0	0.000	0.0
20260325 03:20	5.4	3.6	5.4	70	0.4	8	13	180	0.0	1010.0	0	0.000	0.0
20260325 03:25	5.4	4.1	5.4	69	0.2	6	11	158	0.0	1010.1	0	0.000	0.0
20260325 03:30	5.4	4.0	5.4	70	0.4	6	11	158	0.0	1010.1	0	0.000	0.0
20260325 03:35	5.3	4.0	5.3	70	0.3	6	14	158	0.0	1010.1	0	0.000	0.0
20260325 03:40	5.2	3.9	5.2	70	0.2	6	13	158	0.0	1010.0	0	0.000	0.0
20260325 03:45	5.2	5.2	5.2	70	0.2	5	11	158	0.0	1010.2	0	0.000	0.0
20260325 03:50	5.2	3.8	5.2	70	0.1	6	11	180	0.0	1010.1	0	0.000	0.0
20260325 03:55	5.1	3.3	5.1	70	0.1	8	16	180	0.0	1010.1	0	0.000	0.0
20260325 04:00	5.1	3.2	5.1	70	0.0	8	11	180	0.0	1010.0	0	0.025	0.0
20260325 04:05	5.1	3.2	5.1	70	0.0	8	16	158	0.0	1009.9	0	0.000	0.0
20260325 04:10	5.1	3.2	5.1	70	0.0	8	18	158	0.0	1009.8	0	0.000	0.0
20260325 04:15	5.0	3.1	5.0	70	-0.0	8	14	158	0.0	1009.7	0	0.000	0.0
20260325 04:20	5.1	3.2	5.1	69	-0.2	8	16	180	0.0	1009.6	0	0.000	0.0
20260325 04:25	5.1	3.3	5.1	69	-0.1	8	19	158	0.0	1009.3	0	0.000	0.0
20260325 04:30	5.2	3.8	5.2	68	-0.3	6	13	158	0.0	1009.1	0	0.000	0.0
20260325 04:35	5.2	5.2	5.2	68	-0.3	5	11	158	0.0	1009.0	0	0.000	0.0
20260325 04:40	5.2	5.2	5.2	68	-0.3	3	10	158	0.0	1008.8	0	0.000	0.0
20260325 04:45	5.2	3.9	5.2	68	-0.2	6	14	135	0.0	1008.8	0	0.000	0.0
20260325 04:50	5.5	5.5	5.5	67	-0.1	3	8	225	0.0	1008.4	0	0.000	0.0
20260325 04:55	5.6	5.6	5.6	67	-0.1	3	8	248	0.0	1008.5	0	0.000	0.0
20260325 05:00	5.6	5.6	5.6	67	-0.1	5	14	248	0.0	1008.4	0	0.025	0.0
20260325 05:05	5.5	5.5	5.5	67	-0.1	5	14	180	0.0	1008.7	0	0.000	0.0
20260325 05:10	5.6	3.8	5.6	67	-0.1	8	14	180	0.0	1008.6	0	0.000	0.0
20260325 05:15	5.6	3.9	5.6	67	-0.0	8	16	180	0.0	1008.5	0	0.000	0.0
20260325 05:20	5.7	4.0	5.7	66	-0.1	8	18	180	0.0	1008.4	6	0.000	0.0
20260325 05:25	5.9	3.9	5.9	66	0.1	10	18	180	0.0	1008.3	11	0.000	0.0
20260325 05:30	6.3	4.0	6.3	65	0.2	11	18	180	0.0	1008.3	15	0.000	0.0
20260325 05:35	6.6	4.3	6.6	64	0.2	11	21	180	0.0	1008.0	20	0.000	0.0
20260325 05:40	6.8	4.0	6.8	63	0.2	14	26	180	0.0	1007.8	26	0.000	0.0
20260325 05:45	7.1	4.6	7.1	62	0.3	13	24	180	0.0	1007.9	27	0.000	0.0
20260325 05:50	7.3	5.2	7.3	62	0.5	11	26	202	0.0	1007.9	26	0.000	0.0
20260325 05:55	7.3	6.3	7.3	62	0.5	6	13	202	0.0	1008.0	23	0.000	0.0
20260325 06:00	7.3	5.5	7.3	62	0.5	10	19	202	0.0	1007.9	21	0.051	0.0
20260325 06:05	7.6	5.5	7.6	61	0.5	11	27	202	0.0	1007.9	19	0.000	0.0
20260325 06:10	7.8	6.1	7.8	61	0.7	10	19	202	0.0	1007.9	18	0.000	0.0
20260325 06:15	7.9	6.0	7.9	60	0.7	11	23	202	0.0	1007.9	22	0.000	0.0
20260325 06:20	8.0	6.3	8.0	60	0.7	10	18	202	0.0	1007.9	29	0.000	0.0
20260325 06:25	8.1	6.7	8.1	60	0.8	8	18	202	0.0	1007.8	35	0.000	0.0
20260325 06:30	8.3	6.4	8.3	60	1.0	11	23	202	0.0	1007.7	68	0.000	0.0
20260325 06:35	8.8	6.6	8.8	59	1.3	14	24	202	0.0	1007.6	191	0.000	0.0
20260325 06:40	9.3	7.2	9.3	58	1.5	14	26	202	0.0	1007.5	179	0.000	0.0
20260325 06:45	9.7	7.6	9.7	57	1.6	14	27	202	0.0	1007.4	157	0.000	0.0
20260325 06:50	9.9	8.3	9.9	56	1.5	11	24	202	0.0	1007.1	73	0.000	0.0
20260325 06:55	10.1	10.1	10.1	56	1.7	10	21	202	0.0	1007.1	71	0.000	0.0
20260325 07:00	10.3	10.3	10.3	55	1.7	13	27	202	0.0	1007.0	80	0.076	0.0
20260325 07:05	10.4	10.4	10.4	55	1.8	13	24	202	0.0	1006.9	96	0.000	0.0
20260325 07:10	10.6	10.6	10.6	55	1.9	13	23	202	0.0	1006.8	110	0.000	0.0
20260325 07:15	10.9	10.9	10.9	55	2.3	13	26	202	0.0	1006.7	110	0.000	0.0
20260325 07:20	11.2	11.2	11.2	54	2.3	14	27	202	0.0	1006.5	102	0.000	0.0
20260325 07:25	11.4	11.4	11.4	53	2.1	14	27	202	0.0	1006.5	105	0.000	0.0
20260325 07:30	11.5	11.5	11.5	52	2.0	16	31	202	0.0	1006.4	132	0.000	0.3
20260325 07:35	11.7	11.7	11.7	52	2.2	13	23	202	0.0	1006.2	152	0.000	0.5
20260325 07:40	11.9	11.9	11.9	51	2.1	14	26	202	0.0	1006.2	147	0.000	0.5
20260325 07:45	12.0	12.0	12.0	51	2.2	13	24	225	0.0	1006.1	129	0.000	0.5
20260325 07:50	12.2	12.2	12.2	52	2.7	14	29	225	0.0	1006.0	135	0.000	0.5
20260325 07:55	12.4	12.4	12.4	52	2.9	18	34	225	0.0	1005.9	146	0.000	0.6
20260325 08:00	12.6	12.6	12.6	51	2.7	18	35	202	0.0	1005.8	143	0.127	0.6
20260325 08:05	12.8	12.8	12.8	52	3.2	18	31	225	0.0	1005.8	159	0.000	0.6
20260325 08:10	12.9	12.9	12.9	51	3.0	23	39	225	0.0	1005.8	159	0.000	0.6
20260325 08:15	13.0	13.0	13.0	51	3.1	21	40	225	0.0	1005.8	165	0.000	0.6
20260325 08:20	13.1	13.1	13.1	51	3.1	21	39	225	0.0	1005.6	174	0.000	0.7
20260325 08:25	13.1	13.1	13.1	51	3.2	24	40	225	0.0	1005.6	186	0.000	0.7
20260325 08:30	13.2	13.2	13.2	51	3.3	21	31	248	0.0	1005.4	182	0.000	0.8
20260325 08:35	13.3	13.3	13.3	51	3.4	19	35	248	0.0	1005.3	125	0.000	0.8
20260325 08:40	13.4	13.4	13.4	51	3.5	23	35	225	0.0	1005.2	96	0.000	0.8
20260325 08:45	13.6	13.6	13.6	51	3.6	21	34	225	0.0	1005.1	76	0.000	0.8
20260325 08:50	13.8	13.8	13.8	51	3.9	19	35	225	0.0	1004.8	106	0.000	0.9
20260325 08:55	14.2	14.2	14.2	50	3.9	23	45	248	0.0	1004.8	145	0.000	1.0
20260325 09:00	14.4	14.4	14.4	48	3.5	34	50	248	0.0	1004.7	159	0.203	1.0
20260325 09:05	14.5	14.5	14.5	48	3.6	27	43	225	0.0	1004.7	132	0.000	0.9
20260325 09:10	14.4	14.4	14.4	47	3.3	29	42	225	0.0	1004.5	109	0.000	0.9
20260325 09:15	14.4	14.4	14.4	48	3.5	18	43	225	0.0	1004.4	103	0.000	0.9
20260325 09:20	14.4	14.4	14.4	47	3.2	31	55	248	0.0	1004.4	127	0.000	1.0
20260325 09:25	14.8	14.8	14.8	46	3.3	27	39	225	0.0	1004.3	169	0.000	1.1
20260325 09:30	14.9	14.9	14.9	47	3.7	24	45	225	0.0	1004.3	151	0.000	1.0
20260325 09:35	14.8	14.8	14.8	47	3.6	24	43	248	0.0	1004.1	128	0.000	1.0
20260325 09:40	14.8	14.8	14.8	47	3.6	27	47	248	0.0	1004.0	123	0.000	1.0
20260325 09:45	14.9	14.9	14.9	46	3.4	27	43	248	0.0	1004.0	158	0.000	1.1
20260325 09:50	14.8	14.8	14.8	47	3.6	29	47	248	0.0	1003.8	145	0.000	1.1
20260325 09:55	14.6	14.6	14.6	48	3.7	29	47	248	0.0	1003.9	143	0.000	1.1
20260325 10:00	14.3	14.3	14.3	49	3.8	31	53	248	0.0	1003.8	138	0.229	1.1
20260325 10:05	14.3	14.3	14.3	49	3.7	23	35	225	0.0	1003.7	141	0.000	1.1
20260325 10:10	14.5	14.5	14.5	49	3.9	18	39	248	0.0	1003.7	170	0.000	1.2
20260325 10:15	14.9	14.9	14.9	45	3.1	29	51	225	0.0	1003.5	164	0.000	1.3
20260325 10:20	15.3	15.3	15.3	47	4.1	21	63	225	0.0	1003.3	154	0.000	1.2
20260325 10:25	15.2	15.2	15.2	46	3.6	32	63	248	0.0	1003.1	187	0.000	1.2
20260325 10:30	15.1	15.1	15.1	47	3.9	24	42	248	0.0	1003.1	245	0.000	1.3
20260325 10:35	15.1	15.1	15.1	45	3.2	31	53	225	0.0	1002.7	256	0.000	1.3
20260325 10:40	14.8	14.8	14.8	45	3.0	29	53	225	0.0	1002.7	263	0.000	1.3
20260325 10:45	14.8	14.8	14.8	45	3.0	27	47	225	0.0	1002.5	242	0.000	1.2
20260325 10:50	14.8	14.8	14.8	45	3.0	31	51	225	0.0	1002.4	231	0.000	1.1
20260325 10:55	14.8	14.8	14.8	46	3.3	26	43	225	0.0	1002.3	267	0.000	1.2
20260325 11:00	15.2	15.2	15.2	46	3.6	27	43	248	0.0	1002.2	256	0.279	1.4
20260325 11:05	15.6	15.6	15.6	45	3.7	26	47	225	0.0	1001.9	257	0.000	1.5
20260325 11:10	15.9	15.9	15.9	45	4.0	32	51	248	0.0	1002.0	248	0.000	1.4
20260325 11:15	15.7	15.7	15.7	44	3.5	27	47	225	0.0	1001.8	195	0.000	1.0
20260325 11:20	15.5	15.5	15.5	45	3.6	23	35	225	0.0	1001.8	155	0.000	0.8
20260325 11:25	15.2	15.2	15.2	44	3.0	27	50	248	0.0	1001.5	146	0.000	0.7
20260325 11:30	14.8	14.8	14.8	45	3.0	26	40	225	0.0	1001.7	143	0.000	0.7
20260325 11:35	14.7	14.7	14.7	46	3.2	26	39	225	0.0	1001.6	133	0.000	0.7
20260325 11:40	14.6	14.6	14.6	47	3.4	23	42	225	0.0	1001.4	118	0.000	0.6
20260325 11:45	14.4	14.4	14.4	46	3.0	27	42	248	0.0	1001.3	116	0.000	0.6
20260325 11:50	14.4	14.4	14.4	47	3.2	24	39	248	0.0	1001.1	138	0.000	0.7
20260325 11:55	14.4	14.4	14.4	47	3.3	23	42	248	0.0	1001.0	166	0.000	0.8
20260325 12:00	14.6	14.6	14.6	47	3.4	24	37	248	0.0	1000.7	178	0.254	0.9
20260325 12:05	14.6	14.6	14.6	47	3.4	26	37	248	0.0	1000.9	125	0.000	0.6
20260325 12:10	14.4	14.4	14.4	47	3.2	26	43	270	0.0	1000.8	93	0.000	0.3
20260325 12:15	14.2	14.2	14.2	48	3.4	27	45	270	0.0	1000.8	91	0.000	0.2
20260325 12:20	14.1	14.1	14.1	48	3.3	23	40	248	0.0	1000.6	85	0.000	0.0
20260325 12:25	14.1	14.1	14.1	48	3.2	26	47	248	0.0	1000.5	103	0.000	0.5
20260325 12:30	14.1	14.1	14.1	48	3.2	29	47	248	0.0	1000.4	103	0.000	0.5
20260325 12:35	14.0	14.0	14.0	49	3.5	29	42	270	0.0	1000.4	93	0.000	0.1
20260325 12:40	13.9	13.9	13.9	49	3.4	31	51	248	0.0	1000.1	89	0.000	0.0
20260325 12:45	13.9	13.9	13.9	48	3.1	26	53	248	0.0	1000.0	67	0.000	0.0
20260325 12:50	13.9	13.9	13.9	48	3.1	37	53	248	0.0	1000.1	54	0.000	0.0
20260325 12:55	13.9	13.9	13.9	48	3.1	29	47	248	0.0	1000.0	63	0.000	0.0
20260325 13:00	13.8	13.8	13.8	48	3.0	27	53	248	0.0	999.8	62	0.203	0.0
20260325 13:05	13.8	13.8	13.8	48	3.0	29	45	248	0.0	999.9	73	0.000	0.0
20260325 13:10	13.9	13.9	13.9	47	2.8	34	53	248	0.0	999.8	92	0.000	0.0
20260325 13:15	14.0	14.0	14.0	47	2.9	39	60	248	0.0	999.6	101	0.000	0.0
20260325 13:20	14.0	14.0	14.0	48	3.2	29	47	225	0.0	999.5	94	0.000	0.0
20260325 13:25	14.1	14.1	14.1	48	3.2	27	42	225	0.0	999.7	107	0.000	0.3
20260325 13:30	14.1	14.1	14.1	46	2.7	32	55	225	0.0	999.7	121	0.000	0.4
20260325 13:35	14.2	14.2	14.2	47	3.0	27	48	248	0.0	999.6	93	0.000	0.0
20260325 13:40	14.1	14.1	14.1	47	3.0	32	53	248	0.0	999.6	80	0.000	0.0
20260325 13:45	14.1	14.1	14.1	47	3.0	32	53	248	0.0	999.5	103	0.000	0.0
20260325 13:50	14.2	14.2	14.2	48	3.3	24	43	248	0.0	999.6	105	0.000	0.0
20260325 13:55	14.2	14.2	14.2	48	3.4	26	43	248	0.0	999.3	119	0.000	0.2
20260325 14:00	14.3	14.3	14.3	49	3.7	24	42	248	0.0	999.3	104	0.229	0.0
20260325 14:05	14.2	14.2	14.2	49	3.7	32	51	248	0.0	999.6	61	0.000	0.0
20260325 14:10	12.8	12.8	12.8	54	3.8	37	60	292	0.0	1000.1	74	0.000	0.0
20260325 14:15	11.7	11.7	11.7	59	4.0	31	51	315	0.0	1000.3	92	0.000	0.0
20260325 14:20	11.3	11.3	11.3	61	4.1	31	55	292	0.0	1000.6	97	0.000	0.0
20260325 14:25	11.1	11.1	11.1	62	4.1	29	47	292	0.0	1000.7	111	0.000	0.0
20260325 14:30	11.0	11.0	11.0	63	4.2	26	39	292	0.0	1001.0	107	0.000	0.0
20260325 14:35	10.9	10.9	10.9	64	4.3	26	45	315	0.0	1001.1	74	0.000	0.0
20260325 14:40	10.6	10.6	10.6	65	4.3	26	42	315	0.0	1001.4	44	0.000	0.0
20260325 14:45	10.3	10.3	10.3	67	4.5	21	37	315	0.0	1001.5	42	0.000	0.0
20260325 14:50	10.3	10.3	10.3	68	4.6	21	39	270	0.0	1001.4	45	0.000	0.0
20260325 14:55	10.2	10.2	10.2	68	4.6	24	42	270	0.0	1001.3	49	0.000	0.0
20260325 15:00	10.2	10.2	10.2	69	4.7	31	47	270	0.0	1001.4	35	0.152	0.0
20260325 15:05	10.1	10.1	10.1	71	5.0	29	51	270	0.0	1001.6	21	0.000	0.0
20260325 15:10	9.7	6.7	9.7	73	5.1	24	40	270	0.0	1001.6	14	0.000	0.0
20260325 15:15	9.4	6.1	9.4	74	5.0	26	37	270	0.0	1001.5	23	0.000	0.0
20260325 15:20	9.2	5.8	9.2	75	5.0	26	43	248	0.0	1001.3	31	0.000	0.0
20260325 15:25	8.8	5.1	8.8	77	5.0	29	47	270	0.0	1002.2	16	0.000	0.0
20260325 15:30	7.1	2.6	7.1	80	3.8	32	53	292	0.2	1002.9	10	0.000	0.0
20260325 15:35	6.1	1.3	6.1	84	3.6	32	53	315	0.2	1003.1	22	0.000	0.0
20260325 15:40	5.6	0.7	5.6	85	3.3	32	61	292	0.2	1003.5	26	0.000	0.0
20260325 15:45	5.3	0.5	5.3	86	3.1	29	53	292	0.2	1003.5	27	0.000	0.0
20260325 15:50	5.1	0.9	5.1	86	3.0	23	42	292	0.0	1003.5	24	0.000	0.0
20260325 15:55	5.0	0.8	5.0	85	2.7	23	45	292	0.0	1003.5	19	0.000	0.0
20260325 16:00	5.1	0.9	5.1	85	2.7	23	35	292	0.0	1003.7	13	0.051	0.0
20260325 16:05	5.1	0.5	5.1	84	2.6	26	40	292	0.0	1003.8	12	0.000	0.0
20260325 16:10	5.1	0.5	5.1	84	2.6	26	40	292	0.0	1004.0	9	0.000	0.0
20260325 16:15	5.1	1.2	5.1	85	2.7	19	40	292	0.0	1004.0	6	0.000	0.0
20260325 16:20	5.0	1.4	5.0	85	2.7	18	32	270	0.0	1004.2	8	0.000	0.0
20260325 16:25	4.9	1.5	4.9	85	2.6	16	31	270	0.0	1004.3	5	0.000	0.0
20260325 16:30	4.9	2.0	4.9	86	2.8	13	23	248	0.0	1004.3	6	0.000	0.0
20260325 16:35	4.9	2.7	4.9	86	2.8	10	18	248	0.0	1004.2	9	0.000	0.0
20260325 16:40	4.9	1.7	4.9	86	2.7	14	24	248	0.0	1004.0	9	0.000	0.0
20260325 16:45	4.9	2.3	4.9	86	2.7	11	19	248	0.0	1004.0	9	0.000	0.0
20260325 16:50	4.9	2.3	4.9	86	2.8	11	21	225	0.0	1004.0	9	0.000	0.0
20260325 16:55	4.9	2.7	4.9	86	2.8	10	19	225	0.0	1003.9	7	0.000	0.0
20260325 17:00	4.9	2.7	4.9	86	2.8	10	19	225	0.0	1004.2	5	0.025	0.0
20260325 17:05	5.0	1.8	5.0	86	2.9	14	24	225	0.0	1004.1	3	0.000	0.0
20260325 17:10	5.1	2.0	5.1	85	2.8	14	35	202	0.0	1004.3	0	0.000	0.0
20260325 17:15	5.1	1.7	5.1	84	2.6	16	29	248	0.0	1004.3	0	0.000	0.0
20260325 17:20	5.1	1.3	5.1	84	2.6	19	34	248	0.0	1004.2	0	0.000	0.0
20260325 17:25	5.2	1.8	5.2	83	2.5	16	35	248	0.0	1004.2	0	0.000	0.0
20260325 17:30	5.2	2.1	5.2	84	2.7	14	24	248	0.0	1004.3	0	0.000	0.0
20260325 17:35	5.2	2.1	5.2	84	2.7	14	24	248	0.0	1004.3	0	0.000	0.0
20260325 17:40	5.1	1.7	5.1	84	2.6	16	26	248	0.0	1004.4	0	0.000	0.0
20260325 17:45	5.2	2.1	5.2	83	2.5	14	31	248	0.0	1004.5	0	0.000	0.0
20260325 17:50	5.1	2.2	5.1	83	2.5	13	26	248	0.0	1004.4	0	0.000	0.0
20260325 17:55	5.2	2.6	5.2	83	2.5	11	23	225	0.0	1004.6	0	0.000	0.0
20260325 18:00	5.1	2.9	5.1	83	2.5	10	26	225	0.0	1004.7	0	0.025	0.0
20260325 18:05	5.2	2.1	5.2	82	2.3	14	29	225	0.0	1004.3	0	0.000	0.0
20260325 18:10	5.2	1.6	5.2	82	2.3	18	27	225	0.0	1004.4	0	0.000	0.0
20260325 18:15	5.2	1.6	5.2	82	2.3	18	27	248	0.0	1004.4	0	0.000	0.0
20260325 18:20	5.1	1.3	5.1	82	2.3	19	32	248	0.0	1004.5	0	0.000	0.0
20260325 18:25	5.2	1.4	5.2	82	2.3	19	32	248	0.0	1004.6	0	0.000	0.0
20260325 18:30	5.2	1.6	5.2	82	2.3	18	31	225	0.0	1004.7	0	0.000	0.0
20260325 18:35	5.2	1.2	5.2	81	2.2	21	34	225	0.0	1004.8	0	0.000	0.0
20260325 18:40	5.2	2.1	5.2	82	2.3	14	27	225	0.0	1004.8	0	0.000	0.0
20260325 18:45	5.1	1.4	5.1	82	2.2	18	31	225	0.0	1005.0	0	0.000	0.0
20260325 18:50	4.9	1.5	4.9	82	2.1	16	31	225	0.0	1005.1	0	0.000	0.0
20260325 18:55	4.8	1.4	4.8	82	2.0	16	26	225	0.0	1005.2	0	0.000	0.0
20260325 19:00	4.8	1.6	4.8	83	2.1	14	27	225	0.0	1005.3	0	0.025	0.0
20260325 19:05	4.7	1.3	4.7	83	2.1	16	29	225	0.0	1005.2	0	0.000	0.0
20260325 19:10	4.7	1.2	4.7	83	2.0	16	27	225	0.0	1005.2	0	0.000	0.0
20260325 19:15	4.6	1.4	4.6	83	2.0	14	27	225	0.0	1005.3	0	0.000	0.0
20260325 19:20	4.6	1.9	4.6	83	1.9	11	23	225	0.0	1005.3	0	0.000	0.0
20260325 19:25	4.5	1.5	4.5	83	1.9	13	24	225	0.0	1005.4	0	0.000	0.0
20260325 19:30	4.4	1.7	4.4	83	1.8	11	27	225	0.0	1005.3	0	0.000	0.0
20260325 19:35	4.4	1.2	4.4	83	1.8	14	24	225	0.0	1005.3	0	0.000	0.0
20260325 19:40	4.5	1.2	4.5	83	1.9	14	24	225	0.0	1005.4	0	0.000	0.0
20260325 19:45	4.4	1.4	4.4	83	1.8	13	26	225	0.0	1005.4	0	0.000	0.0
20260325 19:50	4.4	1.2	4.4	83	1.8	14	23	225	0.0	1005.5	0	0.000	0.0
20260325 19:55	4.4	1.2	4.4	83	1.8	14	24	225	0.0	1005.4	0	0.000	0.0
20260325 20:00	4.5	1.0	4.5	83	1.9	16	32	225	0.0	1005.4	0	0.025	0.0
20260325 20:05	4.5	1.2	4.5	83	1.9	14	27	225	0.0	1005.1	0	0.000	0.0
20260325 20:10	4.4	0.9	4.4	84	2.0	16	26	225	0.0	1005.1	0	0.000	0.0
20260325 20:15	4.4	1.2	4.4	84	2.0	14	23	225	0.0	1005.1	0	0.000	0.0
20260325 20:20	4.4	1.2	4.4	84	2.0	14	26	225	0.0	1005.0	0	0.000	0.0
20260325 20:25	4.4	1.4	4.4	84	1.9	13	24	225	0.0	1005.0	0	0.000	0.0
20260325 20:30	4.3	1.0	4.3	84	1.8	14	26	225	0.0	1005.0	0	0.000	0.0
20260325 20:35	4.2	0.9	4.2	84	1.8	14	26	225	0.0	1005.0	0	0.000	0.0
20260325 20:40	4.2	0.6	4.2	85	1.9	16	32	225	0.0	1005.1	0	0.000	0.0
20260325 20:45	4.2	1.8	4.2	85	1.9	10	21	248	0.0	1004.9	0	0.000	0.0
20260325 20:50	4.2	0.8	4.2	85	1.9	14	26	248	0.0	1005.0	0	0.000	0.0
20260325 20:55	4.2	0.8	4.2	85	1.9	14	27	225	0.0	1005.1	0	0.000	0.0
20260325 21:00	4.2	0.3	4.2	84	1.7	18	27	248	0.0	1005.0	0	0.025	0.0
20260325 21:05	4.2	1.1	4.2	84	1.7	13	24	225	0.0	1005.1	0	0.000	0.0
20260325 21:10	4.2	0.8	4.2	84	1.7	14	23	248	0.0	1005.1	0	0.000	0.0
20260325 21:15	4.2	0.6	4.2	84	1.7	16	27	248	0.0	1005.2	0	0.000	0.0
20260325 21:20	4.2	0.3	4.2	85	1.9	18	27	270	0.2	1005.3	0	0.000	0.0
20260325 21:25	3.9	0.3	3.9	86	1.8	16	27	248	0.0	1005.4	0	0.000	0.0
20260325 21:30	3.5	-0.5	3.5	86	1.4	18	32	225	0.2	1005.3	0	0.000	0.0
20260325 21:35	3.1	-0.8	3.1	87	1.1	16	23	225	0.0	1005.3	0	0.000	0.0
20260325 21:40	2.8	-0.2	2.8	88	1.0	11	21	248	0.0	1005.5	0	0.000	0.0
20260325 21:45	2.8	0.6	2.8	89	1.2	8	14	225	0.0	1005.6	0	0.000	0.0
20260325 21:50	2.8	-0.3	2.8	89	1.1	11	21	225	0.2	1005.5	0	0.000	0.0
20260325 21:55	2.8	-0.2	2.8	90	1.4	11	16	225	0.0	1005.5	0	0.000	0.0
20260325 22:00	2.8	-0.6	2.8	90	1.3	13	19	248	0.0	1005.5	0	0.025	0.0
20260325 22:05	2.8	0.2	2.8	90	1.4	10	18	248	0.0	1005.3	0	0.000	0.0
20260325 22:10	2.9	0.7	2.9	90	1.4	8	14	248	0.0	1005.2	0	0.000	0.0
20260325 22:15	2.9	0.2	2.9	90	1.4	10	16	270	0.0	1005.2	0	0.000	0.0
20260325 22:20	2.9	0.3	2.9	91	1.6	10	16	248	0.0	1005.2	0	0.000	0.0
20260325 22:25	2.9	0.7	2.9	91	1.6	8	19	270	0.0	1005.3	0	0.000	0.0
20260325 22:30	2.9	0.3	2.9	91	1.6	10	18	270	0.0	1005.4	0	0.000	0.0
20260325 22:35	3.0	0.4	3.0	91	1.7	10	16	248	0.0	1005.4	0	0.000	0.0
20260325 22:40	2.9	0.7	2.9	91	1.6	8	14	248	0.0	1005.3	0	0.000	0.0
20260325 22:45	2.9	0.7	2.9	91	1.6	8	16	270	0.0	1005.2	0	0.000	0.0
20260325 22:50	2.9	0.7	2.9	91	1.6	8	13	270	0.0	1005.2	0	0.000	0.0
20260325 22:55	2.8	0.6	2.8	91	1.5	8	11	270	0.0	1005.2	0	0.000	0.0
20260325 23:00	2.8	1.0	2.8	91	1.5	6	13	270	0.0	1005.2	0	0.000	0.0
20260325 23:05	2.8	0.6	2.8	91	1.5	8	11	248	0.0	1005.4	0	0.000	0.0
20260325 23:10	2.9	0.7	2.9	91	1.6	8	11	248	0.0	1005.4	0	0.000	0.0
20260325 23:15	2.9	0.7	2.9	91	1.6	8	11	248	0.0	1005.3	0	0.000	0.0
20260325 23:20	2.9	0.7	2.9	91	1.6	8	13	270	0.0	1005.3	0	0.000	0.0
20260325 23:25	2.9	0.7	2.9	91	1.6	8	16	270	0.0	1005.3	0	0.000	0.0
20260325 23:30	2.9	0.2	2.9	91	1.6	10	18	270	0.0	1005.3	0	0.000	0.0
20260325 23:35	2.8	0.2	2.8	91	1.5	10	14	270	0.0	1005.4	0	0.000	0.0
20260325 23:40	2.8	-0.2	2.8	91	1.5	11	19	270	0.0	1005.3	0	0.000	0.0
20260325 23:45	2.8	-0.8	2.8	91	1.5	14	23	292	0.0	1005.2	0	0.000	0.0
20260325 23:50	2.8	-0.5	2.8	91	1.5	13	26	270	0.0	1005.3	0	0.000	0.0
20260325 23:55	2.8	-0.5	2.8	91	1.5	13	21	270	0.0	1005.3	0	0.000	0.0



Please note the license to use and transfer of this data:
https://creativecommons.org/licenses/by-nc-sa/3.0/deed.en

Bitte beachten sie die Lizenz zur Verwertung und Weitergabe der Daten:
https://creativecommons.org/licenses/by-nc-sa/3.0/deed.de

zurück zur Übersicht der Archivdaten (Monats und Tagesdaten)